sensor_id;sensor_type;location;lat;lon;timestamp;temperature;humidity
20698;DHT22;10508;50.956;4.640;2023-04-12T00:00:59;9.10;99.90
20698;DHT22;10508;50.956;4.640;2023-04-12T00:03:26;9.10;99.90
20698;DHT22;10508;50.956;4.640;2023-04-12T00:05:51;9.10;99.90
20698;DHT22;10508;50.956;4.640;2023-04-12T00:08:23;9.10;99.90
20698;DHT22;10508;50.956;4.640;2023-04-12T00:10:51;9.10;99.90
20698;DHT22;10508;50.956;4.640;2023-04-12T00:13:17;9.10;99.90
20698;DHT22;10508;50.956;4.640;2023-04-12T00:15:43;9.10;99.90
20698;DHT22;10508;50.956;4.640;2023-04-12T00:18:08;9.10;99.90
20698;DHT22;10508;50.956;4.640;2023-04-12T00:20:34;9.10;99.90
20698;DHT22;10508;50.956;4.640;2023-04-12T00:23:00;9.10;99.90
20698;DHT22;10508;50.956;4.640;2023-04-12T00:25:25;9.10;99.90
20698;DHT22;10508;50.956;4.640;2023-04-12T00:27:51;9.20;99.90
20698;DHT22;10508;50.956;4.640;2023-04-12T00:30:16;9.10;99.90
20698;DHT22;10508;50.956;4.640;2023-04-12T00:32:42;9.20;99.90
20698;DHT22;10508;50.956;4.640;2023-04-12T00:35:08;9.20;99.90
20698;DHT22;10508;50.956;4.640;2023-04-12T00:37:33;9.20;99.90
20698;DHT22;10508;50.956;4.640;2023-04-12T00:40:01;9.20;99.90
20698;DHT22;10508;50.956;4.640;2023-04-12T00:42:27;9.10;99.90
20698;DHT22;10508;50.956;4.640;2023-04-12T00:44:52;9.20;99.90
20698;DHT22;10508;50.956;4.640;2023-04-12T00:47:18;9.20;99.90
20698;DHT22;10508;50.956;4.640;2023-04-12T00:49:44;9.10;99.90
20698;DHT22;10508;50.956;4.640;2023-04-12T00:52:12;9.10;99.90
20698;DHT22;10508;50.956;4.640;2023-04-12T00:54:39;9.10;99.90
20698;DHT22;10508;50.956;4.640;2023-04-12T00:57:05;9.10;99.90
20698;DHT22;10508;50.956;4.640;2023-04-12T00:59:31;9.20;99.90
20698;DHT22;10508;50.956;4.640;2023-04-12T01:01:58;9.20;99.90
20698;DHT22;10508;50.956;4.640;2023-04-12T01:04:25;9.20;99.90
20698;DHT22;10508;50.956;4.640;2023-04-12T01:12:29;9.10;99.90
20698;DHT22;10508;50.956;4.640;2023-04-12T01:15:01;9.00;99.90
20698;DHT22;10508;50.956;4.640;2023-04-12T01:17:29;9.20;99.90
20698;DHT22;10508;50.956;4.640;2023-04-12T01:20:08;9.10;99.90
20698;DHT22;10508;50.956;4.640;2023-04-12T01:22:51;9.10;99.90
20698;DHT22;10508;50.956;4.640;2023-04-12T01:28:31;9.00;99.90
20698;DHT22;10508;50.956;4.640;2023-04-12T01:30:59;9.10;99.90
20698;DHT22;10508;50.956;4.640;2023-04-12T01:33:26;7.10;99.90
20698;DHT22;10508;50.956;4.640;2023-04-12T01:35:58;9.00;99.90
20698;DHT22;10508;50.956;4.640;2023-04-12T01:38:25;8.90;99.90
20698;DHT22;10508;50.956;4.640;2023-04-12T01:40:51;8.90;99.90
20698;DHT22;10508;50.956;4.640;2023-04-12T01:43:16;8.90;99.90
20698;DHT22;10508;50.956;4.640;2023-04-12T01:45:42;8.90;99.90
20698;DHT22;10508;50.956;4.640;2023-04-12T01:48:10;8.90;99.90
20698;DHT22;10508;50.956;4.640;2023-04-12T01:56:19;8.90;99.90
20698;DHT22;10508;50.956;4.640;2023-04-12T01:58:47;9.00;99.90
20698;DHT22;10508;50.956;4.640;2023-04-12T02:01:16;9.00;99.90
20698;DHT22;10508;50.956;4.640;2023-04-12T02:03:44;8.90;99.90
20698;DHT22;10508;50.956;4.640;2023-04-12T02:06:11;9.10;99.90
20698;DHT22;10508;50.956;4.640;2023-04-12T02:08:36;9.10;99.90
20698;DHT22;10508;50.956;4.640;2023-04-12T02:11:09;9.10;99.90
20698;DHT22;10508;50.956;4.640;2023-04-12T02:13:35;9.20;99.90
20698;DHT22;10508;50.956;4.640;2023-04-12T02:16:01;9.00;99.90
20698;DHT22;10508;50.956;4.640;2023-04-12T02:18:27;9.00;99.90
20698;DHT22;10508;50.956;4.640;2023-04-12T02:20:53;9.00;99.90
20698;DHT22;10508;50.956;4.640;2023-04-12T02:23:19;9.00;99.90
20698;DHT22;10508;50.956;4.640;2023-04-12T02:25:44;9.00;99.90
20698;DHT22;10508;50.956;4.640;2023-04-12T02:28:11;9.00;99.90
20698;DHT22;10508;50.956;4.640;2023-04-12T02:30:37;9.10;99.90
20698;DHT22;10508;50.956;4.640;2023-04-12T02:33:03;9.10;99.90
20698;DHT22;10508;50.956;4.640;2023-04-12T02:35:30;9.10;99.90
20698;DHT22;10508;50.956;4.640;2023-04-12T02:37:56;9.00;99.90
20698;DHT22;10508;50.956;4.640;2023-04-12T02:40:22;9.10;99.90
20698;DHT22;10508;50.956;4.640;2023-04-12T02:42:48;9.10;99.90
20698;DHT22;10508;50.956;4.640;2023-04-12T02:45:13;9.10;99.90
20698;DHT22;10508;50.956;4.640;2023-04-12T02:47:39;9.00;99.90
20698;DHT22;10508;50.956;4.640;2023-04-12T02:50:06;9.10;99.90
20698;DHT22;10508;50.956;4.640;2023-04-12T02:52:32;9.00;99.90
20698;DHT22;10508;50.956;4.640;2023-04-12T02:54:57;9.00;99.90
20698;DHT22;10508;50.956;4.640;2023-04-12T02:57:23;9.10;99.90
20698;DHT22;10508;50.956;4.640;2023-04-12T02:59:52;9.10;99.90
20698;DHT22;10508;50.956;4.640;2023-04-12T03:02:19;9.10;99.90
20698;DHT22;10508;50.956;4.640;2023-04-12T03:04:45;9.00;99.90
20698;DHT22;10508;50.956;4.640;2023-04-12T03:07:18;9.00;99.90
20698;DHT22;10508;50.956;4.640;2023-04-12T03:09:45;9.00;99.90
20698;DHT22;10508;50.956;4.640;2023-04-12T03:12:13;9.00;99.90
20698;DHT22;10508;50.956;4.640;2023-04-12T03:14:38;9.10;99.90
20698;DHT22;10508;50.956;4.640;2023-04-12T03:19:31;9.00;99.90
20698;DHT22;10508;50.956;4.640;2023-04-12T03:22:00;9.20;99.90
20698;DHT22;10508;50.956;4.640;2023-04-12T03:24:28;8.90;99.90
20698;DHT22;10508;50.956;4.640;2023-04-12T03:26:54;9.10;99.90
20698;DHT22;10508;50.956;4.640;2023-04-12T03:31:46;9.20;99.90
20698;DHT22;10508;50.956;4.640;2023-04-12T03:34:12;9.20;99.90
20698;DHT22;10508;50.956;4.640;2023-04-12T03:36:38;9.20;99.90
20698;DHT22;10508;50.956;4.640;2023-04-12T03:39:03;9.20;99.90
20698;DHT22;10508;50.956;4.640;2023-04-12T03:41:29;9.20;99.90
20698;DHT22;10508;50.956;4.640;2023-04-12T03:43:55;9.10;99.90
20698;DHT22;10508;50.956;4.640;2023-04-12T03:46:21;9.20;99.90
20698;DHT22;10508;50.956;4.640;2023-04-12T03:48:48;9.20;99.90
20698;DHT22;10508;50.956;4.640;2023-04-12T03:51:13;9.20;99.90
20698;DHT22;10508;50.956;4.640;2023-04-12T03:53:40;9.20;99.90
20698;DHT22;10508;50.956;4.640;2023-04-12T03:56:06;9.20;99.90
20698;DHT22;10508;50.956;4.640;2023-04-12T03:58:32;9.20;99.90
20698;DHT22;10508;50.956;4.640;2023-04-12T04:01:03;9.20;99.90
20698;DHT22;10508;50.956;4.640;2023-04-12T04:03:31;9.30;99.90
20698;DHT22;10508;50.956;4.640;2023-04-12T04:06:02;9.30;99.90
20698;DHT22;10508;50.956;4.640;2023-04-12T04:08:28;9.30;99.90
20698;DHT22;10508;50.956;4.640;2023-04-12T04:10:58;9.30;99.90
20698;DHT22;10508;50.956;4.640;2023-04-12T04:13:24;9.30;99.90
20698;DHT22;10508;50.956;4.640;2023-04-12T04:15:55;9.30;99.90
20698;DHT22;10508;50.956;4.640;2023-04-12T04:18:23;9.20;99.90
20698;DHT22;10508;50.956;4.640;2023-04-12T04:20:48;9.30;99.90
20698;DHT22;10508;50.956;4.640;2023-04-12T04:23:14;9.30;99.90
20698;DHT22;10508;50.956;4.640;2023-04-12T04:25:42;9.30;99.90
20698;DHT22;10508;50.956;4.640;2023-04-12T04:28:07;9.30;99.90
20698;DHT22;10508;50.956;4.640;2023-04-12T04:30:34;9.30;99.90
20698;DHT22;10508;50.956;4.640;2023-04-12T04:33:03;9.30;99.90
20698;DHT22;10508;50.956;4.640;2023-04-12T04:35:29;9.40;99.90
20698;DHT22;10508;50.956;4.640;2023-04-12T04:37:56;10.30;99.90
20698;DHT22;10508;50.956;4.640;2023-04-12T04:40:22;9.50;99.90
20698;DHT22;10508;50.956;4.640;2023-04-12T04:42:49;8.90;99.90
20698;DHT22;10508;50.956;4.640;2023-04-12T04:45:21;9.70;99.90
20698;DHT22;10508;50.956;4.640;2023-04-12T04:47:54;9.50;99.90
20698;DHT22;10508;50.956;4.640;2023-04-12T04:50:23;9.50;99.90
20698;DHT22;10508;50.956;4.640;2023-04-12T04:52:49;9.50;99.90
20698;DHT22;10508;50.956;4.640;2023-04-12T04:55:16;9.50;99.90
20698;DHT22;10508;50.956;4.640;2023-04-12T04:57:49;9.50;99.90
20698;DHT22;10508;50.956;4.640;2023-04-12T05:00:15;9.50;99.90
20698;DHT22;10508;50.956;4.640;2023-04-12T05:02:42;9.50;99.90
20698;DHT22;10508;50.956;4.640;2023-04-12T05:05:11;9.50;99.90
20698;DHT22;10508;50.956;4.640;2023-04-12T05:07:38;9.50;99.90
20698;DHT22;10508;50.956;4.640;2023-04-12T05:10:04;9.50;99.90
20698;DHT22;10508;50.956;4.640;2023-04-12T05:12:29;9.60;99.90
20698;DHT22;10508;50.956;4.640;2023-04-12T05:14:56;9.50;99.90
20698;DHT22;10508;50.956;4.640;2023-04-12T05:17:22;9.70;99.90
20698;DHT22;10508;50.956;4.640;2023-04-12T05:19:48;9.60;99.90
20698;DHT22;10508;50.956;4.640;2023-04-12T05:22:13;9.50;99.90
20698;DHT22;10508;50.956;4.640;2023-04-12T05:24:44;9.60;99.90
20698;DHT22;10508;50.956;4.640;2023-04-12T05:27:10;9.60;99.90
20698;DHT22;10508;50.956;4.640;2023-04-12T05:29:36;9.60;99.90
20698;DHT22;10508;50.956;4.640;2023-04-12T05:32:02;9.70;99.90
20698;DHT22;10508;50.956;4.640;2023-04-12T05:34:27;9.60;99.90
20698;DHT22;10508;50.956;4.640;2023-04-12T05:36:53;9.60;99.90
20698;DHT22;10508;50.956;4.640;2023-04-12T05:39:18;9.60;99.90
20698;DHT22;10508;50.956;4.640;2023-04-12T05:41:44;9.60;99.90
20698;DHT22;10508;50.956;4.640;2023-04-12T05:44:09;9.60;99.90
20698;DHT22;10508;50.956;4.640;2023-04-12T05:46:35;9.60;99.90
20698;DHT22;10508;50.956;4.640;2023-04-12T05:49:00;9.60;99.90
20698;DHT22;10508;50.956;4.640;2023-04-12T05:51:26;9.70;99.90
20698;DHT22;10508;50.956;4.640;2023-04-12T05:53:52;9.70;99.90
20698;DHT22;10508;50.956;4.640;2023-04-12T05:56:17;9.70;99.90
20698;DHT22;10508;50.956;4.640;2023-04-12T05:58:43;9.70;99.90
20698;DHT22;10508;50.956;4.640;2023-04-12T06:01:08;9.30;99.90
20698;DHT22;10508;50.956;4.640;2023-04-12T06:03:35;9.80;99.90
20698;DHT22;10508;50.956;4.640;2023-04-12T06:06:00;9.80;99.90
20698;DHT22;10508;50.956;4.640;2023-04-12T06:08:27;9.90;99.90
20698;DHT22;10508;50.956;4.640;2023-04-12T06:10:53;9.90;99.90
20698;DHT22;10508;50.956;4.640;2023-04-12T06:13:19;9.90;99.90
20698;DHT22;10508;50.956;4.640;2023-04-12T06:15:45;9.50;99.90
20698;DHT22;10508;50.956;4.640;2023-04-12T06:18:11;9.90;99.90
20698;DHT22;10508;50.956;4.640;2023-04-12T06:20:40;10.00;99.90
20698;DHT22;10508;50.956;4.640;2023-04-12T06:23:05;10.00;99.90
20698;DHT22;10508;50.956;4.640;2023-04-12T06:25:32;10.20;99.90
20698;DHT22;10508;50.956;4.640;2023-04-12T06:27:57;10.00;99.90
20698;DHT22;10508;50.956;4.640;2023-04-12T06:30:23;10.00;99.90
20698;DHT22;10508;50.956;4.640;2023-04-12T06:32:49;10.10;99.90
20698;DHT22;10508;50.956;4.640;2023-04-12T06:35:15;10.00;99.90
20698;DHT22;10508;50.956;4.640;2023-04-12T06:37:41;10.10;99.90
20698;DHT22;10508;50.956;4.640;2023-04-12T06:40:07;10.00;99.90
20698;DHT22;10508;50.956;4.640;2023-04-12T06:42:33;10.00;99.90
20698;DHT22;10508;50.956;4.640;2023-04-12T06:44:58;10.00;99.90
20698;DHT22;10508;50.956;4.640;2023-04-12T06:47:24;10.00;99.90
20698;DHT22;10508;50.956;4.640;2023-04-12T06:49:50;9.90;99.90
20698;DHT22;10508;50.956;4.640;2023-04-12T06:52:25;9.90;99.90
20698;DHT22;10508;50.956;4.640;2023-04-12T06:54:51;9.90;99.90
20698;DHT22;10508;50.956;4.640;2023-04-12T06:57:17;9.90;99.90
20698;DHT22;10508;50.956;4.640;2023-04-12T06:59:42;10.40;99.90
20698;DHT22;10508;50.956;4.640;2023-04-12T07:02:08;9.60;99.90
20698;DHT22;10508;50.956;4.640;2023-04-12T07:04:34;10.10;99.90
20698;DHT22;10508;50.956;4.640;2023-04-12T07:06:59;10.20;99.90
20698;DHT22;10508;50.956;4.640;2023-04-12T07:09:25;10.40;99.90
20698;DHT22;10508;50.956;4.640;2023-04-12T07:11:51;10.10;99.90
20698;DHT22;10508;50.956;4.640;2023-04-12T07:14:17;10.00;99.90
20698;DHT22;10508;50.956;4.640;2023-04-12T07:16:42;10.00;99.90
20698;DHT22;10508;50.956;4.640;2023-04-12T07:19:08;10.10;99.90
20698;DHT22;10508;50.956;4.640;2023-04-12T07:21:34;10.10;99.90
20698;DHT22;10508;50.956;4.640;2023-04-12T07:23:59;10.20;99.90
20698;DHT22;10508;50.956;4.640;2023-04-12T07:26:25;10.10;99.90
20698;DHT22;10508;50.956;4.640;2023-04-12T07:28:51;10.10;99.90
20698;DHT22;10508;50.956;4.640;2023-04-12T07:31:17;10.10;99.90
20698;DHT22;10508;50.956;4.640;2023-04-12T07:33:43;10.20;99.90
20698;DHT22;10508;50.956;4.640;2023-04-12T07:36:09;10.20;99.90
20698;DHT22;10508;50.956;4.640;2023-04-12T07:38:35;10.20;99.90
20698;DHT22;10508;50.956;4.640;2023-04-12T07:41:01;10.20;99.90
20698;DHT22;10508;50.956;4.640;2023-04-12T07:43:26;10.20;99.90
20698;DHT22;10508;50.956;4.640;2023-04-12T07:45:55;10.30;99.90
20698;DHT22;10508;50.956;4.640;2023-04-12T07:48:21;10.30;99.90
20698;DHT22;10508;50.956;4.640;2023-04-12T07:50:47;10.40;99.90
20698;DHT22;10508;50.956;4.640;2023-04-12T07:53:23;11.10;99.90
20698;DHT22;10508;50.956;4.640;2023-04-12T07:55:49;10.50;99.90
20698;DHT22;10508;50.956;4.640;2023-04-12T07:58:16;10.60;99.90
20698;DHT22;10508;50.956;4.640;2023-04-12T08:00:43;10.80;99.90
20698;DHT22;10508;50.956;4.640;2023-04-12T08:03:11;10.90;99.90
20698;DHT22;10508;50.956;4.640;2023-04-12T08:05:37;11.10;99.90
20698;DHT22;10508;50.956;4.640;2023-04-12T08:08:03;11.20;99.90
20698;DHT22;10508;50.956;4.640;2023-04-12T08:10:29;11.40;99.90
20698;DHT22;10508;50.956;4.640;2023-04-12T08:12:56;11.50;99.90
20698;DHT22;10508;50.956;4.640;2023-04-12T08:15:21;11.50;99.90
20698;DHT22;10508;50.956;4.640;2023-04-12T08:17:47;11.50;99.90
20698;DHT22;10508;50.956;4.640;2023-04-12T08:20:13;11.40;99.90
20698;DHT22;10508;50.956;4.640;2023-04-12T08:22:41;11.40;99.90
20698;DHT22;10508;50.956;4.640;2023-04-12T08:25:07;11.30;99.90
20698;DHT22;10508;50.956;4.640;2023-04-12T08:27:33;11.50;99.90
20698;DHT22;10508;50.956;4.640;2023-04-12T08:29:59;11.60;99.90
20698;DHT22;10508;50.956;4.640;2023-04-12T08:32:24;11.80;99.90
20698;DHT22;10508;50.956;4.640;2023-04-12T08:34:50;11.90;99.90
20698;DHT22;10508;50.956;4.640;2023-04-12T08:37:16;12.10;99.90
20698;DHT22;10508;50.956;4.640;2023-04-12T08:39:42;12.20;99.90
20698;DHT22;10508;50.956;4.640;2023-04-12T08:42:08;12.20;99.90
20698;DHT22;10508;50.956;4.640;2023-04-12T08:44:36;12.40;99.90
20698;DHT22;10508;50.956;4.640;2023-04-12T08:47:06;12.40;99.90
20698;DHT22;10508;50.956;4.640;2023-04-12T08:49:33;12.30;99.90
20698;DHT22;10508;50.956;4.640;2023-04-12T08:52:04;12.30;99.90
20698;DHT22;10508;50.956;4.640;2023-04-12T08:54:31;12.20;99.90
20698;DHT22;10508;50.956;4.640;2023-04-12T08:56:59;12.20;99.90
20698;DHT22;10508;50.956;4.640;2023-04-12T08:59:30;12.20;99.90
20698;DHT22;10508;50.956;4.640;2023-04-12T09:01:57;12.20;99.90
20698;DHT22;10508;50.956;4.640;2023-04-12T09:04:23;12.30;99.90
20698;DHT22;10508;50.956;4.640;2023-04-12T09:06:50;12.30;99.90
20698;DHT22;10508;50.956;4.640;2023-04-12T09:09:16;12.50;99.90
20698;DHT22;10508;50.956;4.640;2023-04-12T09:11:42;12.60;99.90
20698;DHT22;10508;50.956;4.640;2023-04-12T09:14:24;12.70;99.90
20698;DHT22;10508;50.956;4.640;2023-04-12T09:16:50;13.00;99.90
20698;DHT22;10508;50.956;4.640;2023-04-12T09:19:33;13.20;99.90
20698;DHT22;10508;50.956;4.640;2023-04-12T09:21:59;13.20;99.90
20698;DHT22;10508;50.956;4.640;2023-04-12T09:24:24;13.10;99.90
20698;DHT22;10508;50.956;4.640;2023-04-12T09:27:06;13.00;99.90
20698;DHT22;10508;50.956;4.640;2023-04-12T09:29:32;12.80;99.90
20698;DHT22;10508;50.956;4.640;2023-04-12T09:32:05;12.60;99.90
20698;DHT22;10508;50.956;4.640;2023-04-12T09:34:33;12.70;99.90
20698;DHT22;10508;50.956;4.640;2023-04-12T09:37:17;12.50;99.90
20698;DHT22;10508;50.956;4.640;2023-04-12T09:39:42;12.60;99.90
20698;DHT22;10508;50.956;4.640;2023-04-12T09:42:11;12.50;99.90
20698;DHT22;10508;50.956;4.640;2023-04-12T09:44:39;12.60;99.90
20698;DHT22;10508;50.956;4.640;2023-04-12T09:47:05;12.50;99.90
20698;DHT22;10508;50.956;4.640;2023-04-12T09:49:49;12.50;99.90
20698;DHT22;10508;50.956;4.640;2023-04-12T09:52:15;12.50;99.90
20698;DHT22;10508;50.956;4.640;2023-04-12T09:54:45;12.50;99.90
20698;DHT22;10508;50.956;4.640;2023-04-12T09:57:12;12.40;99.90
20698;DHT22;10508;50.956;4.640;2023-04-12T09:59:41;12.50;99.90
20698;DHT22;10508;50.956;4.640;2023-04-12T10:02:19;12.50;99.90
20698;DHT22;10508;50.956;4.640;2023-04-12T10:04:47;12.50;99.90
20698;DHT22;10508;50.956;4.640;2023-04-12T10:07:14;12.50;99.90
20698;DHT22;10508;50.956;4.640;2023-04-12T10:09:40;12.60;99.90
20698;DHT22;10508;50.956;4.640;2023-04-12T10:12:07;12.50;99.90
20698;DHT22;10508;50.956;4.640;2023-04-12T10:14:33;12.60;99.90
20698;DHT22;10508;50.956;4.640;2023-04-12T10:17:01;12.60;99.90
20698;DHT22;10508;50.956;4.640;2023-04-12T10:19:29;12.60;99.90
20698;DHT22;10508;50.956;4.640;2023-04-12T10:21:56;12.50;99.90
20698;DHT22;10508;50.956;4.640;2023-04-12T10:24:26;12.40;99.90
20698;DHT22;10508;50.956;4.640;2023-04-12T10:26:53;12.20;99.90
20698;DHT22;10508;50.956;4.640;2023-04-12T10:29:31;11.90;99.90
20698;DHT22;10508;50.956;4.640;2023-04-12T10:32:19;11.70;99.90
20698;DHT22;10508;50.956;4.640;2023-04-12T10:34:57;11.80;99.90
20698;DHT22;10508;50.956;4.640;2023-04-12T10:37:57;11.90;99.90
20698;DHT22;10508;50.956;4.640;2023-04-12T10:40:24;12.20;99.90
20698;DHT22;10508;50.956;4.640;2023-04-12T10:45:44;13.00;99.90
20698;DHT22;10508;50.956;4.640;2023-04-12T10:48:30;13.10;99.90
20698;DHT22;10508;50.956;4.640;2023-04-12T10:53:43;12.80;99.90
20698;DHT22;10508;50.956;4.640;2023-04-12T10:59:00;12.40;99.90
20698;DHT22;10508;50.956;4.640;2023-04-12T11:01:27;12.90;99.90
20698;DHT22;10508;50.956;4.640;2023-04-12T11:04:15;13.20;99.90
20698;DHT22;10508;50.956;4.640;2023-04-12T11:11:47;13.40;99.90
20698;DHT22;10508;50.956;4.640;2023-04-12T11:14:16;13.60;99.90
20698;DHT22;10508;50.956;4.640;2023-04-12T11:19:35;13.80;99.90
20698;DHT22;10508;50.956;4.640;2023-04-12T11:22:05;13.70;99.90
20698;DHT22;10508;50.956;4.640;2023-04-12T11:24:31;14.30;99.90
20698;DHT22;10508;50.956;4.640;2023-04-12T11:26:58;14.40;99.90
20698;DHT22;10508;50.956;4.640;2023-04-12T11:29:25;14.40;99.90
20698;DHT22;10508;50.956;4.640;2023-04-12T11:31:51;14.30;99.90
20698;DHT22;10508;50.956;4.640;2023-04-12T11:34:17;14.10;99.90
20698;DHT22;10508;50.956;4.640;2023-04-12T11:36:47;14.10;99.90
20698;DHT22;10508;50.956;4.640;2023-04-12T11:39:13;14.10;99.90
20698;DHT22;10508;50.956;4.640;2023-04-12T11:41:45;14.20;99.90
20698;DHT22;10508;50.956;4.640;2023-04-12T11:44:15;14.10;99.90
20698;DHT22;10508;50.956;4.640;2023-04-12T11:46:44;14.30;99.90
20698;DHT22;10508;50.956;4.640;2023-04-12T11:49:14;14.80;99.90
20698;DHT22;10508;50.956;4.640;2023-04-12T11:51:41;14.90;99.90
20698;DHT22;10508;50.956;4.640;2023-04-12T11:54:07;15.00;99.90
20698;DHT22;10508;50.956;4.640;2023-04-12T11:56:32;15.50;99.90
20698;DHT22;10508;50.956;4.640;2023-04-12T11:58:58;15.40;99.90
20698;DHT22;10508;50.956;4.640;2023-04-12T12:01:24;15.20;99.90
20698;DHT22;10508;50.956;4.640;2023-04-12T12:03:52;14.80;99.90
20698;DHT22;10508;50.956;4.640;2023-04-12T12:08:45;13.10;99.90
20698;DHT22;10508;50.956;4.640;2023-04-12T12:11:11;12.50;99.90
20698;DHT22;10508;50.956;4.640;2023-04-12T12:13:50;12.00;99.90
20698;DHT22;10508;50.956;4.640;2023-04-12T12:16:16;10.70;99.90
20698;DHT22;10508;50.956;4.640;2023-04-12T12:18:44;11.50;99.90
20698;DHT22;10508;50.956;4.640;2023-04-12T12:21:12;11.20;99.90
20698;DHT22;10508;50.956;4.640;2023-04-12T12:23:38;11.10;99.90
20698;DHT22;10508;50.956;4.640;2023-04-12T12:26:06;11.00;99.90
20698;DHT22;10508;50.956;4.640;2023-04-12T12:28:39;11.00;99.90
20698;DHT22;10508;50.956;4.640;2023-04-12T12:31:05;10.90;99.90
20698;DHT22;10508;50.956;4.640;2023-04-12T12:33:38;11.10;99.90
20698;DHT22;10508;50.956;4.640;2023-04-12T12:36:05;10.90;99.90
20698;DHT22;10508;50.956;4.640;2023-04-12T12:38:38;11.00;99.90
20698;DHT22;10508;50.956;4.640;2023-04-12T12:41:20;11.20;99.90
20698;DHT22;10508;50.956;4.640;2023-04-12T12:43:48;11.50;99.90
20698;DHT22;10508;50.956;4.640;2023-04-12T12:46:14;11.60;99.90
20698;DHT22;10508;50.956;4.640;2023-04-12T12:48:42;11.80;99.90
20698;DHT22;10508;50.956;4.640;2023-04-12T12:51:09;11.80;99.90
20698;DHT22;10508;50.956;4.640;2023-04-12T12:53:36;12.10;99.90
20698;DHT22;10508;50.956;4.640;2023-04-12T12:56:02;11.90;99.90
20698;DHT22;10508;50.956;4.640;2023-04-12T12:58:28;11.90;99.90
20698;DHT22;10508;50.956;4.640;2023-04-12T13:00:54;11.90;99.90
20698;DHT22;10508;50.956;4.640;2023-04-12T13:03:20;12.00;99.90
20698;DHT22;10508;50.956;4.640;2023-04-12T13:05:46;12.00;99.90
20698;DHT22;10508;50.956;4.640;2023-04-12T13:08:12;12.10;99.90
20698;DHT22;10508;50.956;4.640;2023-04-12T13:10:37;12.20;99.90
20698;DHT22;10508;50.956;4.640;2023-04-12T13:13:03;12.20;99.90
20698;DHT22;10508;50.956;4.640;2023-04-12T13:15:29;12.10;99.90
20698;DHT22;10508;50.956;4.640;2023-04-12T13:17:54;12.00;99.90
20698;DHT22;10508;50.956;4.640;2023-04-12T13:20:21;11.80;99.90
20698;DHT22;10508;50.956;4.640;2023-04-12T13:25:13;11.90;99.90
20698;DHT22;10508;50.956;4.640;2023-04-12T13:27:39;12.10;99.90
20698;DHT22;10508;50.956;4.640;2023-04-12T13:30:05;12.30;99.90
20698;DHT22;10508;50.956;4.640;2023-04-12T13:32:31;12.80;99.90
20698;DHT22;10508;50.956;4.640;2023-04-12T13:34:57;13.00;99.90
20698;DHT22;10508;50.956;4.640;2023-04-12T13:37:22;13.00;99.90
20698;DHT22;10508;50.956;4.640;2023-04-12T13:39:50;13.20;99.90
20698;DHT22;10508;50.956;4.640;2023-04-12T13:42:15;12.90;99.90
20698;DHT22;10508;50.956;4.640;2023-04-12T13:44:41;13.00;99.90
20698;DHT22;10508;50.956;4.640;2023-04-12T13:47:07;13.00;99.90
20698;DHT22;10508;50.956;4.640;2023-04-12T13:49:33;13.00;99.90
20698;DHT22;10508;50.956;4.640;2023-04-12T13:52:00;12.80;99.90
20698;DHT22;10508;50.956;4.640;2023-04-12T13:54:26;12.40;99.90
20698;DHT22;10508;50.956;4.640;2023-04-12T13:56:52;12.40;99.90
20698;DHT22;10508;50.956;4.640;2023-04-12T13:59:17;12.10;99.90
20698;DHT22;10508;50.956;4.640;2023-04-12T14:01:43;12.10;99.90
20698;DHT22;10508;50.956;4.640;2023-04-12T14:04:08;12.10;99.90
20698;DHT22;10508;50.956;4.640;2023-04-12T14:06:34;12.00;99.90
20698;DHT22;10508;50.956;4.640;2023-04-12T14:09:01;12.00;99.90
20698;DHT22;10508;50.956;4.640;2023-04-12T14:11:26;11.90;99.90
20698;DHT22;10508;50.956;4.640;2023-04-12T19:33:33;8.30;99.90
20698;DHT22;10508;50.956;4.640;2023-04-12T19:35:58;8.40;99.90
20698;DHT22;10508;50.956;4.640;2023-04-12T19:38:24;8.40;99.90
20698;DHT22;10508;50.956;4.640;2023-04-12T19:40:50;8.30;99.90
20698;DHT22;10508;50.956;4.640;2023-04-12T19:43:16;8.30;99.90
20698;DHT22;10508;50.956;4.640;2023-04-12T19:45:43;8.30;99.90
20698;DHT22;10508;50.956;4.640;2023-04-12T19:48:09;8.30;99.90
20698;DHT22;10508;50.956;4.640;2023-04-12T19:50:35;8.30;99.90
